Terminal Aerodrome Forecast
Issued by NWS Grand Junction, CO

Home | Current Version | Previous Version | Text Only | Print | Product List | Glossary On
Versions: 1 2 3 4 5 6 7 8 9 10 11 12 13 14 15 16 17 18 19 20 21 22 23 24 25 26 27 28 29 30 31 32 33 34 35 36 37 38 39 40 41 42 43 44 45 46 47 48 49 50
000
FTUS45 KGJT 230732 AAA
TAFGJT
TAF AMD
KGJT 230732Z 2308/2406 11009KT P6SM VCTS SCT070CB OVC100
     FM230900 14012KT P6SM SCT060 BKN100
     FM231600 16010KT P6SM BKN120
     FM232100 25010KT P6SM VCSH SCT060 BKN100
     FM240300 08005KT P6SM VCSH BKN060=

USA.gov is the U.S. government's official web portal to all federal, state and local government web resources and services.